MDT,Max TemperatureF,Mean TemperatureF,Min TemperatureF,Max Dew PointF,MeanDew PointF,Min DewpointF,Max Humidity, Mean Humidity, Min Humidity, Max Sea Level PressureIn, Mean Sea Level PressureIn, Min Sea Level PressureIn, Max VisibilityMiles, Mean VisibilityMiles, Min VisibilityMiles, Max Wind SpeedMPH, Mean Wind SpeedMPH, Max Gust SpeedMPH,PrecipitationIn, CloudCover, Events, WindDirDegrees
2012-9-1,73,63,53,55,52,50,94,75,47,30.26,30.17,30.11,10,10,4,12,2,18,0.00,4,Rain-Thunderstorm,228
2012-9-2,82,64,46,54,44,32,100,63,17,30.27,30.21,30.13,10,10,5,18,3,22,0.00,1,,222
2012-9-3,84,64,44,45,39,25,87,54,11,30.27,30.21,30.15,10,10,10,18,4,23,0.00,0,,200
2012-9-4,86,62,37,43,35,25,93,51,11,30.25,30.21,30.16,10,10,10,15,2,22,0.00,0,,318
2012-9-5,86,60,35,41,33,27,87,48,12,30.28,30.20,30.11,10,10,7,15,3,22,0.00,0,,229
2012-9-6,84,64,44,50,40,30,82,50,22,30.20,30.12,30.06,10,10,7,20,3,28,0.00,2,Thunderstorm,222
2012-9-7,80,61,42,46,38,27,93,55,16,30.36,30.29,30.22,10,10,7,15,2,17,0.00,0,,14
2012-9-8,82,58,35,37,32,25,87,48,12,30.43,30.34,30.22,10,10,10,10,2,,0.00,0,,207
2012-9-9,87,61,35,41,34,28,93,47,12,30.30,30.21,30.09,10,10,10,14,3,16,0.00,0,,208
2012-9-10,84,67,50,54,44,37,88,53,19,30.14,30.10,30.02,10,10,7,16,3,22,0.00,2,Rain-Thunderstorm,235
2012-9-11,75,62,46,52,46,34,94,66,28,30.18,30.10,30.05,10,10,10,15,2,20,0.00,0,,24
2012-9-12,77,56,35,41,31,21,93,50,12,30.39,30.26,30.18,10,10,7,17,2,23,0.00,0,,61
2012-9-13,82,57,32,34,27,12,93,48,9,30.53,30.44,30.34,10,10,7,14,2,,0.00,0,,174
2012-9-14,84,58,32,34,30,19,93,50,9,30.48,30.39,30.28,10,10,4,15,2,18,0.00,0,,219
2012-9-15,84,58,33,36,30,21,93,45,10,30.38,30.30,30.21,10,10,5,16,2,21,0.00,0,,220
2012-9-16,82,58,33,36,30,23,93,46,11,30.28,30.21,30.12,10,10,7,13,1,,0.00,0,,245
2012-9-17,77,60,41,36,31,23,70,38,14,30.27,30.19,30.14,10,10,5,15,4,20,0.00,1,,68
2012-9-18,78,55,32,34,31,27,93,50,15,30.36,30.28,30.21,10,9,5,9,2,,0.00,0,,179
2012-9-19,80,56,32,32,28,21,93,47,11,30.34,30.28,30.21,10,10,2,17,3,18,0.00,0,,150
2012-9-20,80,56,32,34,28,21,87,45,11,30.34,30.27,30.19,10,10,5,10,2,,0.00,0,,201
2012-9-21,80,56,32,32,27,18,87,48,10,30.32,30.25,30.16,10,10,5,14,3,20,0.00,0,,185
2012-9-22,84,58,32,32,28,23,93,46,11,30.30,30.22,30.15,10,10,7,13,2,16,0.00,0,,200
2012-9-23,77,60,44,50,36,28,82,46,19,30.23,30.19,30.12,10,10,7,21,3,38,0.00,3,Rain,208
2012-9-24,69,58,46,50,45,36,100,71,28,30.19,30.12,30.03,10,10,10,17,3,21,0.00,4,Rain-Thunderstorm,231
2012-9-25,62,53,44,48,43,41,94,77,48,30.14,30.10,30.07,10,8,2,20,3,24,0.00,7,Rain-Thunderstorm,240
2012-9-26,69,58,46,50,47,45,100,81,43,30.21,30.14,30.08,10,10,2,17,2,21,0.00,6,Rain-Thunderstorm,158
2012-9-27,71,56,42,50,44,39,100,78,31,30.28,30.23,30.17,10,9,0,13,1,16,0.00,4,Fog-Rain-Thunderstorm,201
2012-9-28,78,58,37,45,39,28,100,65,17,30.26,30.19,30.10,10,10,2,10,2,,0.00,0,,212
2012-9-29,75,55,35,43,37,32,93,61,21,30.30,30.23,30.19,10,10,7,9,1,17,0.00,0,,330
2012-9-30,78,56,35,41,35,28,93,58,17,30.37,30.31,30.25,10,10,10,7,2,,0.00,0,,74